Time;durP1;ratioP1;P1;durP2;ratioP2;P2;SDS_P1;SDS_P2;PMS_P1;PMS_P2;Temp;Humidity;BMP_temperature;BMP_pressure;BME280_temperature;BME280_humidity;BME280_pressure;Samples;Min_cycle;Max_cycle;Signal;HPM_P1;HPM_P2
2023/04/17 00:01:32;;;;;;;2.47;2.47;;;;;;;;;;4246098;28;20429;-59
2023/04/17 00:03:53;;;;;;;2.90;2.90;;;;;;;;;;4253243;28;20062;-59
2023/04/17 00:06:15;;;;;;;2.80;2.80;;;;;;;;;;4250218;28;20100;-59
2023/04/17 00:08:35;;;;;;;2.88;2.85;;;;;;;;;;4247560;28;20058;-59
2023/04/17 00:10:55;;;;;;;2.95;2.95;;;;;;;;;;4248569;28;20119;-59
2023/04/17 00:13:28;;;;;;;3.40;3.40;;;;;;;;;;4250752;28;20080;-59
2023/04/17 00:15:48;;;;;;;3.05;3.05;;;;;;;;;;4247313;28;20362;-59
2023/04/17 00:18:08;;;;;;;3.17;3.17;;;;;;;;;;4246855;28;20374;-59
2023/04/17 00:20:28;;;;;;;2.92;2.92;;;;;;;;;;4246240;28;20050;-59
2023/04/17 00:22:48;;;;;;;2.63;2.63;;;;;;;;;;4245907;28;20062;-59
2023/04/17 00:25:11;;;;;;;2.78;2.78;;;;;;;;;;4248971;28;20076;-59
2023/04/17 00:27:32;;;;;;;;;;;;;;;;;;4246659;28;20097;-60
2023/04/17 00:29:52;;;;;;;2.83;2.83;;;;;;;;;;4244550;28;19974;-60
2023/04/17 00:32:12;;;;;;;2.35;2.35;;;;;;;;;;4245386;28;20047;-59
2023/04/17 00:34:32;;;;;;;3.10;3.10;;;;;;;;;;4251067;28;20300;-59
2023/04/17 00:36:52;;;;;;;3.53;3.53;;;;;;;;;;4252029;27;20247;-59
2023/04/17 00:39:13;;;;;;;2.90;2.83;;;;;;;;;;4247210;28;20039;-60
2023/04/17 00:41:33;;;;;;;3.35;3.35;;;;;;;;;;4245136;28;20131;-59
2023/04/17 00:43:53;;;;;;;3.83;3.83;;;;;;;;;;4244246;28;20054;-60
2023/04/17 00:46:14;;;;;;;3.45;3.35;;;;;;;;;;4251106;28;20444;-59
2023/04/17 00:48:35;;;;;;;3.15;3.15;;;;;;;;;;4246978;28;20238;-59
2023/04/17 00:50:55;;;;;;;2.53;2.53;;;;;;;;;;4245003;28;20047;-59
2023/04/17 00:53:15;;;;;;;2.47;2.47;;;;;;;;;;4243827;28;20374;-59
2023/04/17 00:55:37;;;;;;;2.92;2.83;;;;;;;;;;4246144;28;20226;-59
2023/04/17 00:57:58;;;;;;;2.50;2.50;;;;;;;;;;4247990;28;20115;-60
2023/04/17 01:00:18;;;;;;;2.72;2.72;;;;;;;;;;4241725;27;20074;-59
2023/04/17 01:02:38;;;;;;;2.60;2.58;;;;;;;;;;4246700;28;20051;-59
2023/04/17 01:04:59;;;;;;;2.67;2.58;;;;;;;;;;4249524;28;20148;-59
2023/04/17 01:07:19;;;;;;;2.22;2.22;;;;;;;;;;4247522;28;20043;-59
2023/04/17 01:09:39;;;;;;;2.83;2.83;;;;;;;;;;4249877;28;20043;-60
2023/04/17 01:12:19;;;;;;;2.58;2.58;;;;;;;;;;4246707;28;20042;-59
2023/04/17 01:14:40;;;;;;;2.75;2.75;;;;;;;;;;4246150;28;20050;-59
2023/04/17 01:17:01;;;;;;;2.88;2.88;;;;;;;;;;4246092;28;20251;-59
2023/04/17 01:19:21;;;;;;;2.85;2.85;;;;;;;;;;4245001;28;20076;-59
2023/04/17 01:21:42;;;;;;;2.60;2.60;;;;;;;;;;4247202;28;20062;-59
2023/04/17 01:24:02;;;;;;;3.08;3.08;;;;;;;;;;4244886;28;20369;-59
2023/04/17 01:26:24;;;;;;;3.50;3.50;;;;;;;;;;4245027;28;20085;-60
2023/04/17 01:28:49;;;;;;;3.00;2.90;;;;;;;;;;4246847;28;20084;-60
2023/04/17 01:31:15;;;;;;;2.58;2.58;;;;;;;;;;4245932;28;20050;-60
2023/04/17 01:33:35;;;;;;;2.72;2.63;;;;;;;;;;4248164;28;20390;-59
2023/04/17 01:35:55;;;;;;;2.63;2.63;;;;;;;;;;4251955;27;20046;-59
2023/04/17 01:38:15;;;;;;;2.60;2.60;;;;;;;;;;4253295;28;20046;-59
2023/04/17 01:40:35;;;;;;;3.10;3.10;;;;;;;;;;4250797;28;20050;-59
2023/04/17 01:42:56;;;;;;;3.08;3.08;;;;;;;;;;4250010;28;20038;-60
2023/04/17 01:45:16;;;;;;;2.72;2.72;;;;;;;;;;4249709;28;20039;-60
2023/04/17 01:47:36;;;;;;;2.20;2.20;;;;;;;;;;4250507;28;20050;-59
2023/04/17 01:49:56;;;;;;;3.10;3.05;;;;;;;;;;4244442;28;20283;-59
2023/04/17 01:52:16;;;;;;;3.22;3.13;;;;;;;;;;4247019;28;20092;-60
2023/04/17 01:54:37;;;;;;;2.10;2.10;;;;;;;;;;4249748;28;20261;-60
2023/04/17 01:56:57;;;;;;;2.65;2.65;;;;;;;;;;4242617;28;20046;-59
2023/04/17 01:59:17;;;;;;;2.35;2.35;;;;;;;;;;4246458;28;20373;-59
2023/04/17 02:01:38;;;;;;;2.25;2.25;;;;;;;;;;4248076;28;20070;-60
2023/04/17 02:03:58;;;;;;;2.40;2.40;;;;;;;;;;4242022;28;20059;-59
2023/04/17 02:06:18;;;;;;;2.55;2.55;;;;;;;;;;4244300;28;20081;-59
2023/04/17 02:08:38;;;;;;;2.63;2.63;;;;;;;;;;4247392;28;20118;-60
2023/04/17 02:10:59;;;;;;;2.35;2.35;;;;;;;;;;4248284;28;20082;-60
2023/04/17 02:13:19;;;;;;;2.67;2.67;;;;;;;;;;4248448;28;20059;-60
2023/04/17 02:15:40;;;;;;;3.05;3.00;;;;;;;;;;4248464;28;20074;-59
2023/04/17 02:18:00;;;;;;;2.88;2.67;;;;;;;;;;4250135;28;20046;-60
2023/04/17 02:20:20;;;;;;;2.17;2.17;;;;;;;;;;4248657;28;20325;-59
2023/04/17 02:22:41;;;;;;;2.40;2.40;;;;;;;;;;4244921;28;20046;-60
2023/04/17 02:25:01;;;;;;;2.25;2.25;;;;;;;;;;4248002;28;20046;-60
2023/04/17 02:27:21;;;;;;;2.28;2.28;;;;;;;;;;4247471;28;20055;-59
2023/04/17 02:29:42;;;;;;;2.55;2.55;;;;;;;;;;4242979;28;20231;-60
2023/04/17 02:32:02;;;;;;;2.20;2.20;;;;;;;;;;4246310;28;20047;-59
2023/04/17 02:34:22;;;;;;;2.53;2.47;;;;;;;;;;4247857;28;20090;-60
2023/04/17 02:36:43;;;;;;;2.22;2.22;;;;;;;;;;4246059;28;20144;-60
2023/04/17 02:39:04;;;;;;;2.22;2.22;;;;;;;;;;4243304;28;20042;-60
2023/04/17 02:41:24;;;;;;;2.40;2.40;;;;;;;;;;4245773;28;20419;-60
2023/04/17 02:43:45;;;;;;;2.70;2.70;;;;;;;;;;4246260;28;20223;-60
2023/04/17 02:46:05;;;;;;;2.90;2.83;;;;;;;;;;4230375;28;20066;-60
2023/04/17 02:48:25;;;;;;;2.05;2.05;;;;;;;;;;4244406;28;20054;-60
2023/04/17 02:50:45;;;;;;;2.05;2.05;;;;;;;;;;4244200;28;20051;-60
2023/04/17 02:53:06;;;;;;;3.55;3.45;;;;;;;;;;4244029;28;20418;-60
2023/04/17 02:55:26;;;;;;;2.42;2.42;;;;;;;;;;4243580;28;20062;-60
2023/04/17 02:57:46;;;;;;;2.28;2.28;;;;;;;;;;4248182;28;20051;-60
2023/04/17 03:00:06;;;;;;;2.88;2.88;;;;;;;;;;4250555;28;20046;-59
2023/04/17 03:02:29;;;;;;;1.95;1.95;;;;;;;;;;4253258;28;20096;-59
2023/04/17 03:04:50;;;;;;;2.38;2.38;;;;;;;;;;4247825;28;20043;-59
2023/04/17 03:07:12;;;;;;;2.38;2.38;;;;;;;;;;4243313;28;20038;-59
2023/04/17 03:09:33;;;;;;;2.20;2.20;;;;;;;;;;4246349;28;20042;-59
2023/04/17 03:11:54;;;;;;;2.30;2.30;;;;;;;;;;4248559;28;20051;-59
2023/04/17 03:14:14;;;;;;;2.10;2.10;;;;;;;;;;4250768;28;20038;-59
2023/04/17 03:16:35;;;;;;;2.55;2.55;;;;;;;;;;4243351;28;20050;-59
2023/04/17 03:18:55;;;;;;;2.33;2.33;;;;;;;;;;4237546;28;20235;-59
2023/04/17 03:21:15;;;;;;;2.72;2.72;;;;;;;;;;4248118;28;20047;-59
2023/04/17 03:23:35;;;;;;;3.40;3.40;;;;;;;;;;4248794;28;20054;-59
2023/04/17 03:25:55;;;;;;;3.05;3.05;;;;;;;;;;4243609;28;20043;-59
2023/04/17 03:28:16;;;;;;;2.80;2.80;;;;;;;;;;4246302;28;20080;-60
2023/04/17 03:30:36;;;;;;;2.72;2.72;;;;;;;;;;4240872;28;20039;-59
2023/04/17 03:32:59;;;;;;;2.83;2.83;;;;;;;;;;4247553;28;20068;-59
2023/04/17 03:35:19;;;;;;;2.70;2.70;;;;;;;;;;4248817;28;20058;-60
2023/04/17 03:37:40;;;;;;;2.92;2.92;;;;;;;;;;4244482;28;20243;-59
2023/04/17 03:40:00;;;;;;;2.08;2.08;;;;;;;;;;4243113;28;20047;-60
2023/04/17 03:42:20;;;;;;;2.97;2.97;;;;;;;;;;4247724;28;20149;-59
2023/04/17 03:44:41;;;;;;;3.33;3.33;;;;;;;;;;4234531;28;20362;-59
2023/04/17 03:47:01;;;;;;;3.70;3.60;;;;;;;;;;4248144;28;20238;-60
2023/04/17 03:49:22;;;;;;;4.43;4.22;;;;;;;;;;4244733;28;20045;-60
2023/04/17 03:51:42;;;;;;;3.22;3.22;;;;;;;;;;4248372;28;20084;-60
2023/04/17 03:54:02;;;;;;;3.53;3.00;;;;;;;;;;4248343;28;20077;-59
2023/04/17 03:56:23;;;;;;;3.08;2.95;;;;;;;;;;4249864;28;20093;-59
2023/04/17 03:58:43;;;;;;;2.17;2.17;;;;;;;;;;4250047;28;20081;-59
2023/04/17 04:01:09;;;;;;;3.33;2.65;;;;;;;;;;4249401;28;20061;-59
2023/04/17 04:03:29;;;;;;;2.67;2.58;;;;;;;;;;4250542;28;20076;-59
2023/04/17 04:05:50;;;;;;;2.75;2.75;;;;;;;;;;4249263;28;20074;-59
2023/04/17 04:08:10;;;;;;;2.45;2.45;;;;;;;;;;4251371;28;20094;-60
2023/04/17 04:10:31;;;;;;;2.55;2.47;;;;;;;;;;4247520;28;20077;-60
2023/04/17 04:12:51;;;;;;;2.67;2.67;;;;;;;;;;4245432;28;20110;-60
2023/04/17 04:15:12;;;;;;;3.28;3.17;;;;;;;;;;4242631;28;20074;-60
2023/04/17 04:17:32;;;;;;;2.50;2.50;;;;;;;;;;4249880;28;20092;-60
2023/04/17 04:19:52;;;;;;;2.50;2.50;;;;;;;;;;4250974;28;20052;-59
2023/04/17 04:22:13;;;;;;;2.33;2.33;;;;;;;;;;4240368;28;20051;-60
2023/04/17 04:24:34;;;;;;;2.65;2.65;;;;;;;;;;4249519;28;20120;-60
2023/04/17 04:27:01;;;;;;;3.63;3.35;;;;;;;;;;4249457;28;20042;-60
2023/04/17 04:29:24;;;;;;;2.67;2.55;;;;;;;;;;4248019;28;20096;-59
2023/04/17 04:31:49;;;;;;;3.25;3.15;;;;;;;;;;4246161;28;20053;-60
2023/04/17 04:34:10;;;;;;;2.78;2.67;;;;;;;;;;4247835;27;20042;-59
2023/04/17 04:36:30;;;;;;;4.03;3.72;;;;;;;;;;4246184;27;20050;-60
2023/04/17 04:38:50;;;;;;;3.60;3.47;;;;;;;;;;4248758;28;20106;-60
2023/04/17 04:41:11;;;;;;;3.47;2.60;;;;;;;;;;4240055;28;20086;-60
2023/04/17 04:43:32;;;;;;;3.30;3.20;;;;;;;;;;4234799;28;20134;-59
2023/04/17 04:45:52;;;;;;;2.72;2.63;;;;;;;;;;4244932;28;20088;-59
2023/04/17 04:48:13;;;;;;;3.17;2.97;;;;;;;;;;4246643;28;20254;-60
2023/04/17 04:50:33;;;;;;;3.78;2.47;;;;;;;;;;4243370;28;20058;-60
2023/04/17 04:52:53;;;;;;;3.03;2.92;;;;;;;;;;4246831;28;20232;-60
2023/04/17 04:55:14;;;;;;;2.60;2.50;;;;;;;;;;4243382;28;20039;-59
2023/04/17 04:57:35;;;;;;;2.58;2.58;;;;;;;;;;4246464;28;20410;-59
2023/04/17 04:59:55;;;;;;;2.70;2.60;;;;;;;;;;4245652;28;20145;-59
2023/04/17 05:02:15;;;;;;;2.72;2.60;;;;;;;;;;4249145;28;20084;-59
2023/04/17 05:04:36;;;;;;;2.65;2.65;;;;;;;;;;4242674;28;20111;-59
2023/04/17 05:06:57;;;;;;;1.95;1.95;;;;;;;;;;4248795;28;20397;-59
2023/04/17 05:09:17;;;;;;;2.70;2.70;;;;;;;;;;4242453;28;20273;-60
2023/04/17 05:11:38;;;;;;;3.58;3.53;;;;;;;;;;4246313;28;20088;-60
2023/04/17 05:13:58;;;;;;;4.22;4.13;;;;;;;;;;4243998;28;20223;-60
2023/04/17 05:16:18;;;;;;;5.18;4.50;;;;;;;;;;4248137;28;20055;-59
2023/04/17 05:18:38;;;;;;;2.60;2.60;;;;;;;;;;4249563;28;20449;-60
2023/04/17 05:20:58;;;;;;;3.10;3.10;;;;;;;;;;4247370;28;20058;-61
2023/04/17 05:23:21;;;;;;;3.13;3.13;;;;;;;;;;4249613;28;20055;-61
2023/04/17 05:25:42;;;;;;;2.60;2.50;;;;;;;;;;4247409;28;20104;-61
2023/04/17 05:28:02;;;;;;;2.50;2.50;;;;;;;;;;4247781;28;20459;-61
2023/04/17 05:30:22;;;;;;;2.75;2.67;;;;;;;;;;4246646;28;20054;-61
2023/04/17 05:32:43;;;;;;;2.70;2.60;;;;;;;;;;4250491;28;20051;-61
2023/04/17 05:35:05;;;;;;;3.08;3.08;;;;;;;;;;4248058;28;20047;-61
2023/04/17 05:37:25;;;;;;;2.30;2.22;;;;;;;;;;4229132;28;20054;-62
2023/04/17 05:39:45;;;;;;;2.83;2.83;;;;;;;;;;4241688;28;20121;-61
2023/04/17 05:42:06;;;;;;;2.80;2.80;;;;;;;;;;4252749;28;20046;-61
2023/04/17 05:44:26;;;;;;;2.17;2.17;;;;;;;;;;4250547;28;20441;-61
2023/04/17 05:46:46;;;;;;;2.58;2.53;;;;;;;;;;4250600;27;20078;-61
2023/04/17 05:49:06;;;;;;;2.70;2.47;;;;;;;;;;4255550;28;20042;-61
2023/04/17 05:51:27;;;;;;;2.60;2.55;;;;;;;;;;4245443;28;20400;-61
2023/04/17 05:53:47;;;;;;;2.83;2.83;;;;;;;;;;4246607;28;20383;-61
2023/04/17 05:56:08;;;;;;;2.58;2.35;;;;;;;;;;4251747;28;20047;-61
2023/04/17 05:58:28;;;;;;;5.25;2.50;;;;;;;;;;4246142;28;20058;-61
2023/04/17 06:00:48;;;;;;;2.63;2.63;;;;;;;;;;4244269;28;20695;-61
2023/04/17 06:03:08;;;;;;;2.40;2.30;;;;;;;;;;4250297;28;20050;-61
2023/04/17 06:05:29;;;;;;;2.45;2.45;;;;;;;;;;4253304;28;20046;-61
2023/04/17 06:07:49;;;;;;;2.75;2.75;;;;;;;;;;4246705;28;20050;-61
2023/04/17 06:10:10;;;;;;;3.08;2.83;;;;;;;;;;4252150;28;20046;-61
2023/04/17 06:12:30;;;;;;;4.55;2.95;;;;;;;;;;4251994;28;20360;-61
2023/04/17 06:14:50;;;;;;;109.43;14.93;;;;;;;;;;4249770;28;20035;-61
2023/04/17 06:17:11;;;;;;;14.55;3.58;;;;;;;;;;4247382;28;20046;-61
2023/04/17 06:19:31;;;;;;;52.60;7.78;;;;;;;;;;4252058;28;20053;-61
2023/04/17 06:21:51;;;;;;;4.75;3.40;;;;;;;;;;4251344;28;20075;-62
2023/04/17 06:24:11;;;;;;;2.97;2.97;;;;;;;;;;4245208;28;20242;-62
2023/04/17 06:26:31;;;;;;;3.00;3.00;;;;;;;;;;4249675;28;20065;-61
2023/04/17 06:28:52;;;;;;;3.30;2.30;;;;;;;;;;4249490;28;20065;-62
2023/04/17 06:31:14;;;;;;;71.95;11.68;;;;;;;;;;4243394;28;20243;-62
2023/04/17 06:33:34;;;;;;;18.25;3.65;;;;;;;;;;4246187;28;20054;-61
2023/04/17 06:35:55;;;;;;;8.95;3.70;;;;;;;;;;4250964;28;20269;-62
2023/04/17 06:38:15;;;;;;;2.78;2.33;;;;;;;;;;4248153;28;20065;-62
2023/04/17 06:40:35;;;;;;;2.95;2.72;;;;;;;;;;4244487;28;20120;-61
2023/04/17 06:42:55;;;;;;;3.00;3.00;;;;;;;;;;4246964;28;20393;-62
2023/04/17 06:45:15;;;;;;;3.35;3.25;;;;;;;;;;4247197;28;20080;-61
2023/04/17 06:47:36;;;;;;;3.47;3.38;;;;;;;;;;4246912;28;20050;-61
2023/04/17 06:49:58;;;;;;;3.28;3.17;;;;;;;;;;4244968;28;20069;-61
2023/04/17 06:52:20;;;;;;;2.35;2.28;;;;;;;;;;4246346;28;20042;-61
2023/04/17 06:54:40;;;;;;;2.23;2.23;;;;;;;;;;4245941;28;20081;-61
2023/04/17 06:57:04;;;;;;;2.45;2.45;;;;;;;;;;4243517;28;20046;-61
2023/04/17 06:59:25;;;;;;;3.22;3.17;;;;;;;;;;4244977;28;20085;-62
2023/04/17 07:01:45;;;;;;;2.45;2.45;;;;;;;;;;4246702;28;20050;-62
2023/04/17 07:04:07;;;;;;;2.80;2.80;;;;;;;;;;4243795;28;20038;-61
2023/04/17 07:06:28;;;;;;;2.42;2.42;;;;;;;;;;4243825;28;20338;-61
2023/04/17 07:08:48;;;;;;;2.50;2.50;;;;;;;;;;4247764;28;20104;-61
2023/04/17 07:11:08;;;;;;;60.17;8.50;;;;;;;;;;4248508;28;20054;-61
2023/04/17 07:13:30;;;;;;;2.20;2.20;;;;;;;;;;4243678;28;20078;-61
2023/04/17 07:15:53;;;;;;;2.58;2.47;;;;;;;;;;4249065;28;20393;-61
2023/04/17 07:18:13;;;;;;;;;;;;;;;;;;4253633;28;20061;-62
2023/04/17 07:20:33;;;;;;;2.20;2.10;;;;;;;;;;4243376;28;20114;-61
2023/04/17 07:22:54;;;;;;;2.30;2.25;;;;;;;;;;4248268;28;20055;-61
2023/04/17 07:25:14;;;;;;;2.72;2.58;;;;;;;;;;4248283;28;20069;-61
2023/04/17 07:27:37;;;;;;;2.67;2.60;;;;;;;;;;4252044;28;20552;-61
2023/04/17 07:29:57;;;;;;;2.83;2.83;;;;;;;;;;4249895;28;20254;-61
2023/04/17 07:32:18;;;;;;;2.97;2.88;;;;;;;;;;4250024;28;20039;-61
2023/04/17 07:34:40;;;;;;;2.92;2.90;;;;;;;;;;4249100;28;20046;-61
2023/04/17 07:37:00;;;;;;;2.15;2.15;;;;;;;;;;4238164;28;20050;-61
2023/04/17 07:39:21;;;;;;;2.63;2.63;;;;;;;;;;4243701;28;20068;-61
2023/04/17 07:41:41;;;;;;;2.60;2.40;;;;;;;;;;4245047;28;20077;-59
2023/04/17 07:44:02;;;;;;;2.13;2.13;;;;;;;;;;4247296;28;20054;-59
2023/04/17 07:46:22;;;;;;;2.50;1.80;;;;;;;;;;4246243;28;20117;-59
2023/04/17 07:48:42;;;;;;;2.50;2.50;;;;;;;;;;4244174;28;20050;-59
2023/04/17 07:51:03;;;;;;;3.00;2.90;;;;;;;;;;4245364;28;20059;-59
2023/04/17 07:53:24;;;;;;;2.30;2.30;;;;;;;;;;4250034;28;20055;-59
2023/04/17 07:55:44;;;;;;;4.10;1.90;;;;;;;;;;4245603;28;20084;-59
2023/04/17 07:58:05;;;;;;;2.58;2.58;;;;;;;;;;4250884;28;20046;-59
2023/04/17 08:00:25;;;;;;;2.05;2.05;;;;;;;;;;4245389;28;20066;-59
2023/04/17 08:02:46;;;;;;;2.90;2.90;;;;;;;;;;4250474;28;20050;-60
2023/04/17 08:05:07;;;;;;;2.42;2.38;;;;;;;;;;4245883;28;20050;-59
2023/04/17 08:07:27;;;;;;;2.92;2.83;;;;;;;;;;4251704;28;20292;-59
2023/04/17 08:09:49;;;;;;;2.47;2.47;;;;;;;;;;4244959;28;20084;-59
2023/04/17 08:12:10;;;;;;;4.57;3.67;;;;;;;;;;4252530;28;20084;-59
2023/04/17 08:14:30;;;;;;;3.60;3.03;;;;;;;;;;4245178;28;20046;-59
2023/04/17 08:16:50;;;;;;;2.78;2.55;;;;;;;;;;4243239;28;20088;-59
2023/04/17 08:19:11;;;;;;;2.75;2.65;;;;;;;;;;4247924;28;20046;-59
2023/04/17 08:21:32;;;;;;;2.42;2.42;;;;;;;;;;4251175;28;20043;-59
2023/04/17 08:23:53;;;;;;;2.67;2.67;;;;;;;;;;4248411;28;20050;-58
2023/04/17 08:26:13;;;;;;;2.40;2.40;;;;;;;;;;4246342;28;20328;-58
2023/04/17 08:28:33;;;;;;;2.97;2.97;;;;;;;;;;4244358;28;20053;-60
2023/04/17 08:30:53;;;;;;;2.55;2.55;;;;;;;;;;4251156;28;20149;-59
2023/04/17 08:33:15;;;;;;;2.63;2.63;;;;;;;;;;4253438;28;20058;-59
2023/04/17 08:35:38;;;;;;;2.55;2.55;;;;;;;;;;4248189;27;20107;-59
2023/04/17 08:37:58;;;;;;;2.72;2.63;;;;;;;;;;4245771;28;20107;-59
2023/04/17 08:40:21;;;;;;;2.95;2.95;;;;;;;;;;4246761;28;20050;-59
2023/04/17 08:42:42;;;;;;;;;;;;;;;;;;4248728;28;20235;-59
2023/04/17 08:45:12;;;;;;;2.72;2.53;;;;;;;;;;4247719;28;19922;-60
2023/04/17 08:47:33;;;;;;;3.05;2.85;;;;;;;;;;4247087;28;20046;-59
2023/04/17 08:49:54;;;;;;;3.00;2.95;;;;;;;;;;4246690;28;20055;-59
2023/04/17 08:52:15;;;;;;;4.88;4.38;;;;;;;;;;4250162;28;20068;-60
2023/04/17 08:54:37;;;;;;;4.88;3.05;;;;;;;;;;4249699;28;20242;-59
2023/04/17 08:56:57;;;;;;;2.35;2.35;;;;;;;;;;4244873;28;20051;-59
2023/04/17 08:59:17;;;;;;;2.35;2.35;;;;;;;;;;4245093;28;20066;-59
2023/04/17 09:01:37;;;;;;;2.63;2.63;;;;;;;;;;4245508;28;20042;-59
2023/04/17 09:03:58;;;;;;;2.63;2.63;;;;;;;;;;4243775;28;20104;-59
2023/04/17 09:06:19;;;;;;;2.55;2.45;;;;;;;;;;4252155;28;20280;-59
2023/04/17 09:08:39;;;;;;;2.22;1.77;;;;;;;;;;4245464;28;20050;-59
2023/04/17 09:10:59;;;;;;;2.72;2.72;;;;;;;;;;4242550;28;20088;-60
2023/04/17 09:13:23;;;;;;;2.85;2.85;;;;;;;;;;4244853;28;20083;-59
2023/04/17 09:15:44;;;;;;;3.08;2.97;;;;;;;;;;4243049;28;20242;-60
2023/04/17 09:18:05;;;;;;;2.30;2.30;;;;;;;;;;4249000;28;20050;-59
2023/04/17 09:20:25;;;;;;;3.10;3.00;;;;;;;;;;4241904;28;20050;-59
2023/04/17 09:22:45;;;;;;;2.67;2.58;;;;;;;;;;4250334;28;20066;-59
2023/04/17 09:25:22;;;;;;;2.97;2.72;;;;;;;;;;4247306;28;20058;-59
2023/04/17 09:27:43;;;;;;;4.20;4.10;;;;;;;;;;4249552;28;20155;-59
2023/04/17 09:30:04;;;;;;;2.70;2.70;;;;;;;;;;4243248;28;20054;-59
2023/04/17 09:32:25;;;;;;;2.53;2.20;;;;;;;;;;4241330;28;20296;-59
2023/04/17 09:34:45;;;;;;;3.00;2.80;;;;;;;;;;4243862;28;20058;-59
2023/04/17 09:37:06;;;;;;;2.08;2.08;;;;;;;;;;4245745;28;20085;-59
2023/04/17 09:39:26;;;;;;;2.72;2.72;;;;;;;;;;4244217;28;20120;-59
2023/04/17 09:41:47;;;;;;;3.42;3.42;;;;;;;;;;4241958;28;20085;-59
2023/04/17 09:44:08;;;;;;;2.53;2.33;;;;;;;;;;4240997;28;20039;-59
2023/04/17 09:46:33;;;;;;;3.22;3.13;;;;;;;;;;4245487;28;20046;-60
2023/04/17 09:48:53;;;;;;;2.15;2.03;;;;;;;;;;4238970;28;20062;-59
2023/04/17 09:51:13;;;;;;;3.30;3.00;;;;;;;;;;4245389;28;20042;-59
2023/04/17 09:53:34;;;;;;;60.85;8.10;;;;;;;;;;4246721;28;20046;-60
2023/04/17 09:55:54;;;;;;;2.25;2.25;;;;;;;;;;4243510;28;20328;-59
2023/04/17 09:58:15;;;;;;;159.77;19.42;;;;;;;;;;4244392;28;20047;-59
2023/04/17 10:00:36;;;;;;;71.95;10.90;;;;;;;;;;4243691;28;20239;-59
2023/04/17 10:02:58;;;;;;;13.48;4.07;;;;;;;;;;4245453;28;20080;-60
2023/04/17 10:05:19;;;;;;;2.33;2.22;;;;;;;;;;4242300;28;20045;-59
2023/04/17 10:07:40;;;;;;;3.65;2.53;;;;;;;;;;4250850;28;20066;-60
2023/04/17 10:10:00;;;;;;;1.70;1.70;;;;;;;;;;4246311;28;20405;-59
2023/04/17 10:12:20;;;;;;;1.60;1.60;;;;;;;;;;4241294;28;20054;-59
2023/04/17 10:14:45;;;;;;;2.45;2.03;;;;;;;;;;4243354;28;20042;-59
2023/04/17 10:17:24;;;;;;;2.58;2.47;;;;;;;;;;4246274;28;20076;-59
2023/04/17 10:19:44;;;;;;;2.40;2.40;;;;;;;;;;4247065;28;20365;-59
2023/04/17 10:22:17;;;;;;;2.20;2.20;;;;;;;;;;4240354;28;20050;-59
2023/04/17 10:24:37;;;;;;;2.30;2.30;;;;;;;;;;4248868;28;20038;-59
2023/04/17 10:26:58;;;;;;;2.50;2.40;;;;;;;;;;4245905;28;20084;-59
2023/04/17 10:29:18;;;;;;;2.03;2.03;;;;;;;;;;4246724;28;20097;-59
2023/04/17 10:31:57;;;;;;;2.28;2.28;;;;;;;;;;4251531;27;20285;-59
2023/04/17 10:34:36;;;;;;;2.05;2.05;;;;;;;;;;4234171;28;20233;-60
2023/04/17 10:36:56;;;;;;;1.88;1.88;;;;;;;;;;4250289;27;20152;-60
2023/04/17 10:39:18;;;;;;;2.58;2.58;;;;;;;;;;4250454;28;20046;-59
2023/04/17 10:41:57;;;;;;;2.38;2.28;;;;;;;;;;4249557;28;20050;-59
2023/04/17 10:44:17;;;;;;;1.92;1.85;;;;;;;;;;4250149;28;20230;-60
2023/04/17 10:46:46;;;;;;;2.30;2.30;;;;;;;;;;4249562;28;20400;-59
2023/04/17 10:49:07;;;;;;;2.53;2.53;;;;;;;;;;4248607;28;20042;-59
2023/04/17 10:51:27;;;;;;;2.22;2.17;;;;;;;;;;4243809;28;20231;-60
2023/04/17 10:54:09;;;;;;;2.80;2.80;;;;;;;;;;4247322;28;20046;-59
2023/04/17 10:56:36;;;;;;;2.40;2.30;;;;;;;;;;4249939;28;20059;-60
2023/04/17 10:59:06;;;;;;;2.50;2.40;;;;;;;;;;4250212;28;20050;-60
2023/04/17 11:01:30;;;;;;;2.00;2.00;;;;;;;;;;4246513;28;20050;-59
2023/04/17 11:03:51;;;;;;;2.20;2.10;;;;;;;;;;4246408;28;20051;-59
2023/04/17 11:06:11;;;;;;;1.98;1.88;;;;;;;;;;4248287;28;20418;-59
2023/04/17 11:08:31;;;;;;;1.80;1.80;;;;;;;;;;4244682;28;20104;-59
2023/04/17 11:10:53;;;;;;;2.15;2.15;;;;;;;;;;4245725;28;20057;-60
2023/04/17 11:13:14;;;;;;;2.00;2.00;;;;;;;;;;4243562;28;20130;-59
2023/04/17 11:15:35;;;;;;;1.90;1.90;;;;;;;;;;4243820;28;20047;-59
2023/04/17 11:17:55;;;;;;;2.13;2.03;;;;;;;;;;4244625;28;20234;-60
2023/04/17 11:20:20;;;;;;;5.68;1.95;;;;;;;;;;4244387;28;20061;-60
2023/04/17 11:22:40;;;;;;;2.42;2.42;;;;;;;;;;4248917;28;20050;-60
2023/04/17 11:25:00;;;;;;;1.58;1.48;;;;;;;;;;4243632;28;20118;-59
2023/04/17 11:27:21;;;;;;;2.58;2.42;;;;;;;;;;4243344;28;20084;-60
2023/04/17 11:29:44;;;;;;;3.92;2.58;;;;;;;;;;4243776;28;20058;-59
2023/04/17 11:32:04;;;;;;;4.97;3.65;;;;;;;;;;4255369;28;20063;-60
2023/04/17 11:34:25;;;;;;;2.85;2.65;;;;;;;;;;4253997;28;20051;-60
2023/04/17 11:36:50;;;;;;;2.22;2.22;;;;;;;;;;4244423;28;20393;-60
2023/04/17 11:39:14;;;;;;;2.95;2.85;;;;;;;;;;4245220;28;20042;-61
2023/04/17 11:41:38;;;;;;;2.00;2.00;;;;;;;;;;4242960;28;20051;-60
2023/04/17 11:44:00;;;;;;;2.00;2.00;;;;;;;;;;4245352;27;20370;-60
2023/04/17 11:46:22;;;;;;;2.45;2.35;;;;;;;;;;4250021;28;20063;-60
2023/04/17 11:48:42;;;;;;;2.22;2.15;;;;;;;;;;4249377;28;20247;-60
2023/04/17 11:51:03;;;;;;;1.73;1.73;;;;;;;;;;4243331;28;20386;-60
2023/04/17 11:53:24;;;;;;;3.03;2.83;;;;;;;;;;4248417;28;20374;-59
2023/04/17 11:55:44;;;;;;;3.90;2.72;;;;;;;;;;4248721;28;20332;-59
2023/04/17 11:58:06;;;;;;;2.25;2.25;;;;;;;;;;4245927;28;20046;-60
2023/04/17 12:00:30;;;;;;;2.63;2.63;;;;;;;;;;4250477;28;20078;-60
2023/04/17 12:02:50;;;;;;;1.60;1.60;;;;;;;;;;4247405;28;20050;-60
2023/04/17 12:05:17;;;;;;;1.45;1.45;;;;;;;;;;4245656;28;20134;-60
2023/04/17 12:07:37;;;;;;;1.90;1.80;;;;;;;;;;4246781;28;20046;-61
2023/04/17 12:09:57;;;;;;;2.10;1.98;;;;;;;;;;4252428;28;20081;-60
2023/04/17 12:12:17;;;;;;;1.55;1.55;;;;;;;;;;4246387;28;20231;-61
2023/04/17 12:14:38;;;;;;;1.42;1.42;;;;;;;;;;4248374;28;20096;-61
2023/04/17 12:16:58;;;;;;;1.50;1.50;;;;;;;;;;4247265;28;20063;-61
2023/04/17 12:19:18;;;;;;;2.85;2.28;;;;;;;;;;4243669;28;20366;-60
2023/04/17 12:21:39;;;;;;;1.80;1.40;;;;;;;;;;4243894;28;20157;-60
2023/04/17 12:24:00;;;;;;;1.58;1.58;;;;;;;;;;4242708;28;20054;-61
2023/04/17 12:26:20;;;;;;;1.52;1.42;;;;;;;;;;4247467;28;20051;-60
2023/04/17 12:28:41;;;;;;;1.45;1.45;;;;;;;;;;4233109;28;20043;-61
2023/04/17 12:31:02;;;;;;;2.00;1.80;;;;;;;;;;4244816;28;20115;-61
2023/04/17 12:33:23;;;;;;;4.30;1.98;;;;;;;;;;4240985;28;20101;-60
2023/04/17 12:35:43;;;;;;;1.30;1.30;;;;;;;;;;4248151;27;20270;-60
2023/04/17 12:38:03;;;;;;;1.50;1.40;;;;;;;;;;4249871;28;20062;-60
2023/04/17 12:40:24;;;;;;;1.70;1.70;;;;;;;;;;4246444;28;20672;-61
2023/04/17 12:42:46;;;;;;;1.65;1.65;;;;;;;;;;4243087;28;20074;-61
2023/04/17 12:45:10;;;;;;;2.45;2.35;;;;;;;;;;4247790;28;20050;-60
2023/04/17 12:47:30;;;;;;;1.45;1.45;;;;;;;;;;4248948;28;20080;-60
2023/04/17 12:49:50;;;;;;;1.65;1.65;;;;;;;;;;4246683;28;20042;-63
2023/04/17 12:52:10;;;;;;;1.40;1.40;;;;;;;;;;4246571;28;20050;-62
2023/04/17 12:54:31;;;;;;;1.10;1.10;;;;;;;;;;4247642;28;20084;-61
2023/04/17 12:56:51;;;;;;;1.70;1.70;;;;;;;;;;4250234;28;20107;-61
2023/04/17 12:59:11;;;;;;;1.85;1.65;;;;;;;;;;4246812;28;20103;-61
2023/04/17 13:01:32;;;;;;;1.48;1.40;;;;;;;;;;4246286;28;20050;-61
2023/04/17 13:03:52;;;;;;;1.55;1.55;;;;;;;;;;4249635;28;20043;-61
2023/04/17 13:06:14;;;;;;;1.30;1.30;;;;;;;;;;4246066;28;20050;-61
2023/04/17 13:08:35;;;;;;;2.15;1.45;;;;;;;;;;4241554;28;20046;-61
2023/04/17 13:10:58;;;;;;;1.48;1.42;;;;;;;;;;4245118;28;20302;-61
2023/04/17 13:13:18;;;;;;;1.70;1.60;;;;;;;;;;4244248;28;20055;-62
2023/04/17 13:15:38;;;;;;;1.40;1.40;;;;;;;;;;4244037;28;20096;-61
2023/04/17 13:17:59;;;;;;;4.32;1.52;;;;;;;;;;4244542;28;20046;-61
2023/04/17 13:20:19;;;;;;;1.15;1.15;;;;;;;;;;4245514;28;20046;-62
2023/04/17 13:22:39;;;;;;;1.65;1.55;;;;;;;;;;4244390;28;20093;-68
2023/04/17 13:24:59;;;;;;;1.30;1.30;;;;;;;;;;4243383;28;20234;-67
2023/04/17 13:27:20;;;;;;;1.73;1.60;;;;;;;;;;4243524;28;20080;-68
2023/04/17 13:29:40;;;;;;;1.42;1.42;;;;;;;;;;4247831;28;20042;-67
2023/04/17 13:32:00;;;;;;;1.30;1.30;;;;;;;;;;4243501;28;20290;-67
2023/04/17 13:34:20;;;;;;;2.90;1.30;;;;;;;;;;4250631;28;20243;-67
2023/04/17 13:36:41;;;;;;;1.52;1.40;;;;;;;;;;4244104;28;20119;-68
2023/04/17 13:39:01;;;;;;;82.15;11.23;;;;;;;;;;4243162;28;20149;-67
2023/04/17 13:41:21;;;;;;;2.13;1.50;;;;;;;;;;4244479;28;20357;-68
2023/04/17 13:43:42;;;;;;;1.60;1.50;;;;;;;;;;4242632;28;20042;-67
2023/04/17 13:46:02;;;;;;;1.50;1.50;;;;;;;;;;4243071;28;20045;-67
2023/04/17 13:48:22;;;;;;;1.55;1.55;;;;;;;;;;4241876;28;20050;-67
2023/04/17 13:50:42;;;;;;;1.65;1.65;;;;;;;;;;4247168;28;20074;-67
2023/04/17 13:53:03;;;;;;;1.80;1.70;;;;;;;;;;4246062;28;20234;-67
2023/04/17 13:55:23;;;;;;;2.03;1.92;;;;;;;;;;4242204;28;20115;-66
2023/04/17 13:57:43;;;;;;;21.52;2.72;;;;;;;;;;4241655;28;20054;-68
2023/04/17 14:00:03;;;;;;;1.50;1.50;;;;;;;;;;4247928;28;20075;-67
2023/04/17 14:02:24;;;;;;;2.45;1.60;;;;;;;;;;4246117;28;20385;-67
2023/04/17 14:04:44;;;;;;;1.35;1.35;;;;;;;;;;4243863;28;20137;-67
2023/04/17 14:07:05;;;;;;;1.90;1.80;;;;;;;;;;4248032;27;20043;-67